Time;durP1;ratioP1;P1;durP2;ratioP2;P2;SDS_P1;SDS_P2;PMS_P1;PMS_P2;Temp;Humidity;BMP_temperature;BMP_pressure;BME280_temperature;BME280_humidity;BME280_pressure;Samples;Min_cycle;Max_cycle;Signal;HPM_P1;HPM_P2
2022/08/27 00:00:54;;;;;;;8.50;5.82;;;22.00;99.90;;;;;;5110333;28;20027;-84
2022/08/27 00:03:20;;;;;;;9.43;7.13;;;22.00;99.90;;;;;;5120355;28;20030;-81
2022/08/27 00:05:45;;;;;;;9.07;6.88;;;22.00;99.90;;;;;;5119287;28;20481;-83
2022/08/27 00:08:12;;;;;;;11.35;6.45;;;22.00;99.90;;;;;;5118540;28;20062;-83
2022/08/27 00:10:39;;;;;;;10.70;7.05;;;22.00;99.90;;;;;;5115684;27;20046;-83
2022/08/27 00:13:05;;;;;;;9.70;7.15;;;22.00;99.90;;;;;;5102247;28;20027;-83
2022/08/27 00:15:33;;;;;;;11.57;6.15;;;22.00;99.90;;;;;;5116450;28;20032;-85
2022/08/27 00:17:59;;;;;;;10.85;7.25;;;22.00;99.90;;;;;;5119020;28;20036;-84
2022/08/27 00:20:26;;;;;;;9.55;6.10;;;22.00;99.90;;;;;;5114214;28;20085;-85
2022/08/27 00:22:52;;;;;;;10.85;6.75;;;22.00;99.90;;;;;;5112919;27;20059;-82
2022/08/27 00:25:19;;;;;;;9.82;6.18;;;22.00;99.90;;;;;;5111752;28;20056;-82
2022/08/27 00:27:45;;;;;;;10.52;6.53;;;22.00;99.90;;;;;;5107212;28;20023;-83
2022/08/27 00:30:14;;;;;;;13.27;5.55;;;22.00;99.90;;;;;;5119100;28;20075;-84
2022/08/27 00:32:41;;;;;;;12.10;7.20;;;22.10;99.90;;;;;;5106438;28;20058;-80
2022/08/27 00:35:07;;;;;;;8.23;6.00;;;22.10;99.90;;;;;;5114158;28;20097;-82
2022/08/27 00:37:34;;;;;;;9.32;7.47;;;22.10;99.90;;;;;;5119564;28;20024;-81
2022/08/27 00:40:00;;;;;;;8.27;6.88;;;22.10;99.90;;;;;;5119648;28;20024;-80
2022/08/27 00:42:25;;;;;;;10.45;7.18;;;22.10;99.90;;;;;;5110446;28;20036;-80
2022/08/27 00:44:51;;;;;;;9.35;6.75;;;22.10;99.90;;;;;;5119001;28;20042;-84
2022/08/27 00:47:25;;;;;;;10.75;7.28;;;22.10;99.90;;;;;;5117224;28;20101;-85
2022/08/27 00:49:55;;;;;;;13.05;9.05;;;22.20;99.90;;;;;;5118473;28;20034;-85
2022/08/27 00:52:28;;;;;;;14.63;8.88;;;22.10;99.90;;;;;;5114055;28;20022;-84
2022/08/27 00:55:02;;;;;;;11.82;9.23;;;22.10;99.90;;;;;;5113190;28;20051;-82
2022/08/27 00:57:39;;;;;;;13.82;9.85;;;22.10;99.90;;;;;;5111370;28;20036;-85
2022/08/27 01:00:09;;;;;;;14.35;9.77;;;22.10;99.90;;;;;;5115004;28;20032;-82
2022/08/27 01:02:35;;;;;;;13.13;10.57;;;22.00;99.90;;;;;;5116446;28;20060;-83
2022/08/27 01:05:06;;;;;;;12.63;9.82;;;22.00;99.90;;;;;;5108308;28;20032;-81
2022/08/27 01:07:39;;;;;;;10.35;9.30;;;22.00;99.90;;;;;;5115082;28;20468;-84
2022/08/27 01:10:10;;;;;;;16.23;8.95;;;22.00;99.90;;;;;;5114087;28;20038;-82
2022/08/27 01:12:36;;;;;;;16.55;11.65;;;22.00;99.90;;;;;;5112031;28;20119;-82
2022/08/27 01:15:05;;;;;;;13.90;10.05;;;21.90;99.90;;;;;;5105885;28;20046;-82
2022/08/27 01:17:31;;;;;;;12.93;10.55;;;21.90;99.90;;;;;;5103386;28;20491;-83
2022/08/27 01:20:01;;;;;;;13.18;10.23;;;21.80;99.90;;;;;;5121751;27;20122;-84
2022/08/27 01:22:47;;;;;;;18.95;11.05;;;21.80;99.90;;;;;;5097648;28;20032;-85
2022/08/27 01:25:15;;;;;;;17.35;11.50;;;21.80;99.90;;;;;;5102323;28;20020;-85
2022/08/27 01:27:43;;;;;;;16.75;11.15;;;21.80;99.90;;;;;;5112455;28;20031;-84
2022/08/27 01:30:11;;;;;;;15.93;12.85;;;21.80;99.90;;;;;;5102296;28;20024;-83
2022/08/27 01:32:38;;;;;;;22.17;13.68;;;21.70;99.90;;;;;;5097517;28;20084;-83
2022/08/27 01:35:07;;;;;;;17.67;14.23;;;21.80;99.90;;;;;;5104180;28;20423;-86
2022/08/27 01:37:33;;;;;;;16.73;13.95;;;21.70;99.90;;;;;;5112720;28;20019;-83
2022/08/27 01:40:00;;;;;;;16.45;13.60;;;21.60;99.90;;;;;;5106859;28;20027;-81
2022/08/27 01:42:40;;;;;;;19.80;15.38;;;21.60;99.90;;;;;;5110835;28;20042;-82
2022/08/27 01:45:19;;;;;;;21.60;15.00;;;21.60;99.90;;;;;;5114722;28;20016;-83
2022/08/27 01:47:45;;;;;;;16.92;14.32;;;21.60;99.90;;;;;;5111343;28;20023;-81
2022/08/27 01:50:19;;;;;;;19.17;14.25;;;21.60;99.90;;;;;;5107411;28;20040;-82
2022/08/27 01:52:45;;;;;;;17.00;12.80;;;21.60;99.90;;;;;;5111692;28;20020;-83
2022/08/27 01:55:15;;;;;;;22.75;16.38;;;21.60;99.90;;;;;;5113857;28;20126;-84
2022/08/27 01:57:42;;;;;;;19.38;14.68;;;21.70;99.90;;;;;;5110490;28;20043;-83
2022/08/27 02:00:20;;;;;;;25.33;14.32;;;21.70;99.90;;;;;;5113208;28;20587;-83
2022/08/27 02:02:46;;;;;;;18.75;13.05;;;21.70;99.90;;;;;;5101445;28;20509;-81
2022/08/27 02:05:15;;;;;;;24.55;14.68;;;21.70;99.90;;;;;;5103438;28;20393;-83
2022/08/27 02:07:41;;;;;;;18.83;14.43;;;21.80;99.90;;;;;;5102552;28;20046;-83
2022/08/27 02:10:10;;;;;;;20.73;14.68;;;21.80;99.90;;;;;;5111590;28;20072;-83
2022/08/27 02:12:38;;;;;;;23.92;14.13;;;21.70;99.90;;;;;;5106410;28;20028;-84
2022/08/27 02:15:20;;;;;;;17.42;13.98;;;21.70;99.90;;;;;;5112040;28;20080;-82
2022/08/27 02:17:46;;;;;;;16.73;11.73;;;21.70;99.90;;;;;;5108253;28;20020;-85
2022/08/27 02:20:14;;;;;;;18.02;13.82;;;21.70;99.90;;;;;;5108926;28;20032;-83
2022/08/27 02:22:40;;;;;;;17.58;13.48;;;21.70;99.90;;;;;;5123776;27;20028;-82
2022/08/27 02:25:09;;;;;;;17.92;14.10;;;21.70;99.90;;;;;;5113855;28;20504;-82
2022/08/27 02:27:35;;;;;;;19.23;14.02;;;21.70;99.90;;;;;;5108817;28;20027;-82
2022/08/27 02:30:01;;;;;;;19.42;15.52;;;21.70;99.90;;;;;;5111710;28;20031;-82
2022/08/27 02:32:27;;;;;;;21.02;13.50;;;21.70;99.90;;;;;;5110302;28;20020;-83
2022/08/27 02:34:58;;;;;;;20.20;14.20;;;21.60;99.90;;;;;;5109225;28;20084;-85
2022/08/27 02:37:27;;;;;;;19.67;13.35;;;21.60;99.90;;;;;;5115635;28;20039;-81
2022/08/27 02:39:53;;;;;;;17.42;13.55;;;21.50;99.90;;;;;;5110013;28;20024;-85
2022/08/27 02:42:18;;;;;;;19.15;13.68;;;21.50;99.90;;;;;;5115246;28;20034;-85
2022/08/27 02:44:44;;;;;;;15.77;12.45;;;21.40;99.90;;;;;;5110066;28;20031;-83
2022/08/27 02:47:11;;;;;;;15.55;12.15;;;21.40;99.90;;;;;;5113295;28;20670;-85
2022/08/27 02:49:36;;;;;;;17.70;13.25;;;21.30;99.90;;;;;;5103480;28;20032;-83
2022/08/27 02:52:03;;;;;;;16.42;12.70;;;21.40;99.90;;;;;;5108524;28;20051;-83
2022/08/27 02:54:31;;;;;;;16.10;13.05;;;21.30;99.90;;;;;;5115606;28;20439;-88
2022/08/27 02:56:59;;;;;;;17.13;12.93;;;21.30;99.90;;;;;;5108899;28;20028;-87
2022/08/27 02:59:28;;;;;;;18.58;12.80;;;21.20;99.90;;;;;;5109761;28;20023;-86
2022/08/27 03:01:54;;;;;;;18.88;12.98;;;21.20;99.90;;;;;;5107141;28;20027;-87
2022/08/27 03:04:21;;;;;;;20.08;14.18;;;21.10;99.90;;;;;;5131901;28;20024;-85
2022/08/27 03:06:47;;;;;;;20.73;12.90;;;21.20;99.90;;;;;;5102099;28;20024;-86
2022/08/27 03:09:13;;;;;;;18.15;12.27;;;21.20;99.90;;;;;;5114113;28;20039;-86
2022/08/27 03:11:39;;;;;;;28.75;12.48;;;21.20;99.90;;;;;;5114084;28;20024;-82
2022/08/27 03:14:08;;;;;;;18.92;12.52;;;21.10;99.90;;;;;;5117634;28;20111;-84
2022/08/27 03:16:36;;;;;;;16.42;12.15;;;21.10;99.90;;;;;;5117972;28;20047;-84
2022/08/27 03:19:03;;;;;;;17.83;12.52;;;21.10;99.90;;;;;;5116210;28;20091;-82
2022/08/27 03:21:29;;;;;;;16.98;11.52;;;21.10;99.90;;;;;;5110839;28;20028;-83
2022/08/27 03:23:54;;;;;;;19.00;12.73;;;21.00;99.90;;;;;;5119980;28;20146;-84
2022/08/27 03:26:20;;;;;;;17.27;12.15;;;21.00;99.90;;;;;;5109943;28;20127;-83
2022/08/27 03:28:46;;;;;;;15.02;10.68;;;21.00;99.90;;;;;;5108838;28;20019;-82
2022/08/27 03:31:25;;;;;;;17.48;11.48;;;21.10;99.90;;;;;;5117205;28;20053;-83
2022/08/27 03:34:05;;;;;;;15.48;11.73;;;21.10;99.90;;;;;;5117129;28;20023;-81
2022/08/27 03:36:33;;;;;;;21.27;12.73;;;21.10;99.90;;;;;;5106685;28;20036;-82
2022/08/27 03:38:59;;;;;;;16.10;11.85;;;21.10;99.90;;;;;;5112836;28;20525;-83
2022/08/27 03:41:25;;;;;;;18.42;11.35;;;21.20;99.90;;;;;;5109113;28;20032;-83
2022/08/27 03:43:51;;;;;;;23.25;11.95;;;21.20;99.90;;;;;;5130744;27;20026;-83
2022/08/27 03:46:19;;;;;;;17.08;11.75;;;21.10;99.90;;;;;;5118167;28;20023;-83
2022/08/27 03:48:45;;;;;;;20.73;11.93;;;21.10;99.90;;;;;;5113655;28;20107;-84
2022/08/27 03:51:13;;;;;;;15.55;10.13;;;21.00;99.90;;;;;;5110471;28;20039;-83
2022/08/27 03:53:41;;;;;;;20.50;11.85;;;21.00;99.90;;;;;;5111737;28;20030;-84
2022/08/27 03:56:08;;;;;;;12.57;10.00;;;21.00;99.90;;;;;;5113853;28;20020;-84
2022/08/27 03:58:35;;;;;;;15.13;9.88;;;21.00;99.90;;;;;;5134106;27;20093;-84
2022/08/27 04:01:02;;;;;;;17.25;9.68;;;21.00;99.90;;;;;;5128581;27;20081;-82
2022/08/27 04:03:30;;;;;;;17.05;9.70;;;21.00;99.90;;;;;;5112979;28;20028;-82
2022/08/27 04:05:57;;;;;;;22.95;11.63;;;21.00;99.90;;;;;;5113094;28;20027;-82
2022/08/27 04:08:24;;;;;;;15.05;10.85;;;21.00;99.90;;;;;;5117556;28;20073;-84
2022/08/27 04:10:50;;;;;;;17.38;10.90;;;20.90;99.90;;;;;;5116926;28;20027;-84
2022/08/27 04:13:16;;;;;;;13.57;9.88;;;20.90;99.90;;;;;;5136953;27;20024;-83
2022/08/27 04:15:48;;;;;;;17.25;10.10;;;21.00;99.90;;;;;;5117611;28;20089;-83
2022/08/27 04:18:15;;;;;;;12.63;9.73;;;21.00;99.90;;;;;;5117757;28;20019;-82
2022/08/27 04:20:43;;;;;;;17.15;11.00;;;20.90;99.90;;;;;;5116444;28;20027;-86
2022/08/27 04:23:10;;;;;;;16.95;10.23;;;20.90;99.90;;;;;;5106756;28;20513;-84
2022/08/27 04:25:41;;;;;;;20.90;10.25;;;20.90;99.90;;;;;;5128800;27;20039;-82
2022/08/27 04:28:07;;;;;;;18.58;10.82;;;20.90;99.90;;;;;;5131008;27;20024;-82
2022/08/27 04:30:46;;;;;;;18.25;10.18;;;20.90;99.90;;;;;;5122334;27;20027;-81
2022/08/27 04:33:20;;;;;;;17.63;10.25;;;20.90;99.90;;;;;;5115239;28;20055;-85
2022/08/27 04:35:45;;;;;;;13.68;9.27;;;20.90;99.90;;;;;;5116330;27;20046;-86
2022/08/27 04:38:14;;;;;;;14.60;9.93;;;20.90;99.90;;;;;;5110788;28;20478;-83
2022/08/27 04:43:27;;;;;;;12.20;8.60;;;20.90;99.90;;;;;;5100108;28;20043;-80
2022/08/27 04:45:52;;;;;;;15.77;8.57;;;20.90;99.90;;;;;;5120127;27;20395;-84
2022/08/27 04:48:18;;;;;;;14.95;8.82;;;21.00;99.90;;;;;;5114493;28;20032;-82
2022/08/27 04:50:45;;;;;;;14.13;8.88;;;20.90;99.90;;;;;;5118234;28;20027;-86
2022/08/27 04:53:13;;;;;;;15.27;8.00;;;20.90;99.90;;;;;;5114453;28;20119;-83
2022/08/27 04:55:49;;;;;;;12.18;8.55;;;20.90;99.90;;;;;;5107456;28;20035;-82
2022/08/27 04:58:16;;;;;;;11.27;8.57;;;21.00;99.90;;;;;;5116665;28;20028;-82
2022/08/27 05:00:54;;;;;;;12.10;8.43;;;21.00;99.90;;;;;;5117888;28;20554;-86
2022/08/27 05:03:25;;;;;;;9.50;8.00;;;21.00;99.90;;;;;;5118847;27;20031;-82
2022/08/27 05:05:52;;;;;;;8.52;7.50;;;21.00;99.90;;;;;;5117890;28;20027;-85
2022/08/27 05:08:18;;;;;;;14.88;8.70;;;21.10;99.90;;;;;;5118992;28;20493;-82
2022/08/27 05:10:46;;;;;;;11.07;7.53;;;21.10;99.90;;;;;;5118642;28;20039;-87
2022/08/27 05:13:13;;;;;;;13.00;7.72;;;21.10;99.90;;;;;;5119291;28;20023;-83
2022/08/27 05:15:39;;;;;;;13.75;8.23;;;21.10;99.90;;;;;;5107220;28;20047;-81
2022/08/27 05:18:06;;;;;;;11.20;7.90;;;21.10;99.90;;;;;;5119363;28;20034;-86
2022/08/27 05:20:33;;;;;;;11.18;7.85;;;21.20;99.90;;;;;;5145694;27;20023;-83
2022/08/27 05:22:59;;;;;;;8.95;7.50;;;21.20;99.90;;;;;;5121110;28;20039;-83
2022/08/27 05:25:28;;;;;;;11.95;7.10;;;21.10;99.90;;;;;;5119641;28;20032;-82
2022/08/27 05:27:56;;;;;;;8.55;7.30;;;21.10;99.90;;;;;;5118099;28;20028;-83
2022/08/27 05:30:22;;;;;;;11.88;7.88;;;21.20;99.90;;;;;;5121038;28;20101;-81
2022/08/27 05:32:48;;;;;;;10.77;7.57;;;21.10;99.90;;;;;;5121872;28;20036;-84
2022/08/27 05:35:13;;;;;;;18.42;8.10;;;21.00;99.90;;;;;;5120644;28;20094;-82
2022/08/27 05:37:39;;;;;;;10.23;7.30;;;21.00;99.90;;;;;;5119693;28;20059;-81
2022/08/27 05:40:05;;;;;;;13.30;7.88;;;21.00;99.90;;;;;;5115477;28;20031;-81
2022/08/27 05:42:33;;;;;;;17.30;9.32;;;21.00;99.90;;;;;;5114699;28;20032;-81
2022/08/27 05:44:58;;;;;;;13.65;9.25;;;20.90;99.90;;;;;;5114082;28;20115;-83
2022/08/27 05:47:28;;;;;;;20.10;9.90;;;21.00;99.90;;;;;;5110392;28;20136;-84
2022/08/27 05:49:57;;;;;;;13.13;9.20;;;20.90;99.90;;;;;;5106609;28;20047;-84
2022/08/27 05:52:22;;;;;;;17.83;9.77;;;20.80;99.90;;;;;;5116462;28;20081;-83
2022/08/27 05:54:48;;;;;;;14.52;8.95;;;20.70;99.90;;;;;;5123517;27;20486;-84
2022/08/27 05:57:14;;;;;;;14.48;9.95;;;20.80;99.90;;;;;;5116050;28;20061;-85
2022/08/27 06:02:44;;;;;;;17.20;10.05;;;20.90;99.90;;;;;;5074092;28;20024;-81
2022/08/27 06:05:10;;;;;;;15.75;9.73;;;21.00;99.90;;;;;;5054502;28;20024;-81
2022/08/27 06:07:36;;;;;;;18.65;10.90;;;21.00;99.90;;;;;;5080820;28;20037;-85
2022/08/27 06:10:06;;;;;;;17.98;9.57;;;21.00;99.90;;;;;;5112412;28;20088;-83
2022/08/27 06:12:33;;;;;;;16.85;9.90;;;21.00;99.90;;;;;;5115281;27;20036;-84
2022/08/27 06:15:03;;;;;;;19.02;10.73;;;21.10;99.90;;;;;;5111851;28;20677;-82
2022/08/27 06:17:28;;;;;;;23.08;10.85;;;21.00;99.90;;;;;;5112351;28;20027;-81
2022/08/27 06:19:54;;;;;;;19.92;11.40;;;21.00;99.90;;;;;;5111481;28;20096;-81
2022/08/27 06:22:21;;;;;;;24.80;13.27;;;21.10;99.90;;;;;;5112615;28;20036;-80
2022/08/27 06:24:46;;;;;;;17.65;11.88;;;20.90;99.90;;;;;;5118958;28;20476;-84
2022/08/27 06:27:15;;;;;;;22.00;13.07;;;21.00;99.90;;;;;;5117729;28;20027;-82
2022/08/27 06:29:42;;;;;;;24.35;14.20;;;21.00;99.90;;;;;;5116043;28;20760;-80
2022/08/27 06:32:08;;;;;;;24.88;12.98;;;20.90;99.90;;;;;;5108569;28;20024;-84
2022/08/27 06:34:37;;;;;;;25.17;13.10;;;21.00;99.90;;;;;;5115641;27;20066;-82
2022/08/27 06:37:03;;;;;;;27.58;13.25;;;21.00;99.90;;;;;;5131597;27;20032;-81
2022/08/27 06:39:31;;;;;;;24.08;14.48;;;21.00;99.90;;;;;;5115876;28;20038;-85
2022/08/27 06:41:58;;;;;;;27.90;14.65;;;21.00;99.90;;;;;;5118478;28;20028;-83
2022/08/27 06:44:23;;;;;;;23.88;13.68;;;21.00;99.90;;;;;;5117136;28;20181;-81
2022/08/27 06:46:50;;;;;;;28.27;14.95;;;21.10;99.90;;;;;;5116946;28;20525;-83
2022/08/27 06:49:16;;;;;;;26.83;14.00;;;21.10;99.90;;;;;;5138239;27;20115;-81
2022/08/27 06:51:44;;;;;;;28.52;14.48;;;21.20;99.90;;;;;;5114107;28;20039;-81
2022/08/27 06:54:13;;;;;;;24.27;13.13;;;21.30;99.90;;;;;;5117680;28;20024;-82
2022/08/27 06:56:40;;;;;;;24.20;14.40;;;21.40;99.90;;;;;;5117996;28;20081;-83
2022/08/27 06:59:10;;;;;;;29.23;16.10;;;21.40;99.90;;;;;;5118139;28;20024;-82
2022/08/27 07:01:38;;;;;;;30.23;16.30;;;21.40;99.90;;;;;;5123932;28;20028;-84
2022/08/27 07:04:10;;;;;;;23.63;15.90;;;21.40;99.90;;;;;;5129569;28;20024;-81
2022/08/27 07:06:39;;;;;;;24.42;15.60;;;21.40;99.90;;;;;;5111537;28;20555;-82
2022/08/27 07:09:10;;;;;;;26.60;16.33;;;21.40;99.90;;;;;;5108130;28;20467;-84
2022/08/27 07:11:37;;;;;;;27.83;16.67;;;21.40;99.90;;;;;;5112451;28;20048;-84
2022/08/27 07:14:05;;;;;;;29.95;17.02;;;21.40;99.90;;;;;;5119916;28;20027;-83
2022/08/27 07:16:31;;;;;;;28.15;17.42;;;21.40;99.90;;;;;;5118971;28;20020;-83
2022/08/27 07:18:59;;;;;;;28.83;17.65;;;21.40;99.90;;;;;;5114409;28;20051;-81
2022/08/27 07:21:29;;;;;;;29.60;17.90;;;21.40;99.90;;;;;;5114460;28;20379;-84
2022/08/27 07:23:58;;;;;;;32.17;19.08;;;21.40;99.90;;;;;;5114175;28;20076;-81
2022/08/27 07:26:25;;;;;;;32.70;18.67;;;21.40;99.90;;;;;;5112014;28;20023;-84
2022/08/27 07:28:50;;;;;;;30.67;19.40;;;21.50;99.90;;;;;;5114329;28;20020;-85
2022/08/27 07:31:19;;;;;;;31.70;17.63;;;21.50;99.90;;;;;;5110614;28;20068;-84
2022/08/27 07:33:46;;;;;;;31.15;17.58;;;21.40;99.90;;;;;;5115804;28;20027;-80
2022/08/27 07:36:12;;;;;;;28.48;17.05;;;21.40;99.90;;;;;;5116505;28;20028;-79
2022/08/27 07:38:38;;;;;;;31.60;18.88;;;21.50;99.90;;;;;;5118377;28;20042;-82
2022/08/27 07:41:09;;;;;;;30.95;18.73;;;21.50;99.90;;;;;;5111900;28;20027;-83
2022/08/27 07:46:22;;;;;;;29.10;17.98;;;21.60;99.90;;;;;;5114024;28;20057;-84
2022/08/27 07:48:49;;;;;;;28.63;17.13;;;21.50;99.90;;;;;;5107537;28;20019;-85
2022/08/27 07:51:17;;;;;;;34.45;20.05;;;21.60;99.90;;;;;;5113512;28;20114;-84
2022/08/27 07:53:51;;;;;;;36.28;20.92;;;21.60;99.90;;;;;;5116948;28;20091;-85
2022/08/27 07:56:17;;;;;;;36.40;21.58;;;21.60;99.90;;;;;;5115675;28;20032;-82
2022/08/27 07:58:43;;;;;;;39.30;20.73;;;21.70;99.90;;;;;;5113360;28;20016;-83
2022/08/27 08:01:09;;;;;;;32.10;21.35;;;21.70;99.90;;;;;;5110342;28;20611;-81
2022/08/27 08:03:35;;;;;;;39.08;23.15;;;21.70;99.90;;;;;;5136419;27;20070;-81
2022/08/27 08:06:04;;;;;;;37.55;21.52;;;21.70;99.90;;;;;;5119253;28;20020;-85
2022/08/27 08:08:31;;;;;;;42.97;22.73;;;21.70;99.90;;;;;;5118562;28;20016;-85
2022/08/27 08:10:57;;;;;;;38.75;22.63;;;21.80;99.90;;;;;;5116688;28;20031;-83
2022/08/27 08:13:23;;;;;;;42.42;22.48;;;21.70;99.90;;;;;;5119709;28;20020;-86
2022/08/27 08:15:53;;;;;;;39.88;22.35;;;21.70;99.90;;;;;;5134290;27;20457;-80
2022/08/27 08:18:21;;;;;;;37.92;21.90;;;21.70;99.90;;;;;;5129802;28;20061;-84
2022/08/27 08:21:03;;;;;;;37.42;21.30;;;21.70;99.90;;;;;;5121274;28;20075;-80
2022/08/27 08:23:29;;;;;;;44.63;22.83;;;21.70;99.90;;;;;;5127861;28;20030;-84
2022/08/27 08:26:04;;;;;;;35.95;21.13;;;21.80;99.90;;;;;;5133552;27;20103;-83
2022/08/27 08:28:33;;;;;;;36.33;20.48;;;21.80;99.90;;;;;;5126383;28;20027;-81
2022/08/27 08:31:13;;;;;;;33.17;18.52;;;21.70;99.90;;;;;;5125392;28;20465;-80
2022/08/27 08:33:40;;;;;;;35.22;19.85;;;21.80;99.90;;;;;;5128219;28;20031;-82
2022/08/27 08:36:32;;;;;;;34.97;18.60;;;21.80;99.90;;;;;;5126811;28;20031;-81
2022/08/27 08:39:01;;;;;;;32.20;19.35;;;21.80;99.90;;;;;;5118829;28;20026;-84
2022/08/27 08:41:27;;;;;;;32.72;17.55;;;21.90;99.90;;;;;;5127668;27;20044;-83
2022/08/27 08:43:56;;;;;;;27.58;17.40;;;21.90;99.90;;;;;;5132056;28;20019;-83
2022/08/27 08:46:54;;;;;;;26.27;16.85;;;21.90;99.90;;;;;;5127370;28;20057;-81
2022/08/27 08:49:37;;;;;;;31.25;16.75;;;22.10;99.90;;;;;;5126801;27;20043;-86
2022/08/27 08:52:46;;;;;;;30.80;17.50;;;22.20;99.90;;;;;;5126320;28;20024;-83
2022/08/27 08:58:42;;;;;;;26.98;16.15;;;22.30;99.90;;;;;;5125072;28;20024;-83
2022/08/27 09:01:12;;;;;;;24.63;16.70;;;22.40;99.90;;;;;;5131502;28;20068;-81
2022/08/27 09:04:04;;;;;;;25.70;16.05;;;22.30;99.90;;;;;;5112602;28;20023;-82
2022/08/27 09:07:12;;;;;;;28.05;15.57;;;22.30;99.90;;;;;;5118649;28;20035;-80
2022/08/27 09:09:56;;;;;;;26.83;15.85;;;22.20;99.90;;;;;;5129960;27;20036;-86
2022/08/27 09:12:45;;;;;;;28.80;16.35;;;22.10;99.90;;;;;;5132683;28;20028;-80
2022/08/27 09:15:19;;;;;;;22.02;15.00;;;22.00;99.90;;;;;;5121931;28;20031;-82
2022/08/27 09:18:11;;;;;;;22.77;14.85;;;22.10;99.90;;;;;;5123435;28;20185;-78
2022/08/27 09:20:44;;;;;;;;;;;22.00;99.90;;;;;;5146027;27;20123;-82
2022/08/27 09:23:20;;;;;;;27.40;14.35;;;22.00;99.90;;;;;;5127974;28;19912;-80
2022/08/27 09:25:52;;;;;;;22.70;15.00;;;22.00;99.90;;;;;;5130140;28;20023;-82
2022/08/27 09:31:15;;;;;;;21.42;13.02;;;22.00;99.90;;;;;;5574255;23;21038;-82
2022/08/27 09:33:47;;;;;;;21.13;13.90;;;22.00;99.90;;;;;;5079242;28;20055;-81
2022/08/27 09:36:15;;;;;;;22.40;13.73;;;22.10;99.90;;;;;;5085841;28;20019;-84
2022/08/27 09:39:09;;;;;;;19.70;13.70;;;22.20;99.90;;;;;;5078088;28;20039;-83
2022/08/27 09:41:41;;;;;;;21.13;14.40;;;22.20;99.90;;;;;;5070152;28;20538;-81
2022/08/27 09:44:12;;;;;;;15.10;10.60;;;22.30;99.90;;;;;;5075400;28;20029;-82
2022/08/27 09:46:38;;;;;;;18.30;12.23;;;22.20;99.90;;;;;;5068651;28;20032;-87
2022/08/27 09:49:13;;;;;;;19.33;12.63;;;22.10;99.90;;;;;;5068673;28;20411;-84
2022/08/27 09:51:41;;;;;;;20.45;13.82;;;22.20;99.90;;;;;;5073030;28;20036;-82
2022/08/27 09:54:09;;;;;;;20.55;13.98;;;22.20;99.90;;;;;;5057318;28;20020;-83
2022/08/27 09:56:38;;;;;;;21.30;15.73;;;22.20;99.90;;;;;;5054171;28;20079;-84
2022/08/27 09:59:18;;;;;;;12.80;8.60;;;22.20;99.90;;;;;;5059821;28;20021;-83
2022/08/27 10:02:02;;;;;;;13.18;9.18;;;22.00;99.90;;;;;;5073127;28;20082;-83
2022/08/27 10:04:49;;;;;;;10.80;7.07;;;21.90;99.90;;;;;;5072507;28;20035;-84
2022/08/27 10:07:33;;;;;;;13.73;7.38;;;21.90;99.90;;;;;;5065827;28;20028;-85
2022/08/27 10:10:20;;;;;;;11.98;7.72;;;21.80;99.90;;;;;;5068841;28;20081;-83
2022/08/27 10:13:00;;;;;;;10.63;6.78;;;21.60;99.90;;;;;;5064571;28;20043;-86
2022/08/27 10:15:33;;;;;;;10.07;6.63;;;21.50;99.90;;;;;;5057951;28;20032;-85
2022/08/27 10:18:10;;;;;;;16.17;7.53;;;21.40;99.90;;;;;;5062148;28;20028;-83
2022/08/27 10:20:51;;;;;;;10.10;7.18;;;21.30;99.90;;;;;;5062318;28;20025;-82
2022/08/27 10:23:46;;;;;;;13.18;7.70;;;21.20;99.90;;;;;;5063200;28;20033;-83
2022/08/27 10:26:32;;;;;;;10.63;7.43;;;21.20;99.90;;;;;;5078249;28;20537;-80
2022/08/27 10:29:15;;;;;;;12.27;8.68;;;21.20;99.90;;;;;;5061859;28;20027;-80
2022/08/27 10:32:19;;;;;;;14.05;9.00;;;21.10;99.90;;;;;;5074257;28;20024;-83
2022/08/27 10:35:15;;;;;;;18.20;9.82;;;21.10;99.90;;;;;;5030645;28;20203;-84
2022/08/27 10:38:00;;;;;;;19.17;11.30;;;21.10;99.90;;;;;;5069409;28;20040;-83
2022/08/27 10:40:34;;;;;;;17.08;10.93;;;21.00;99.90;;;;;;5067352;28;20023;-83
2022/08/27 10:43:27;;;;;;;16.92;11.45;;;21.00;99.90;;;;;;5071401;28;20017;-87
2022/08/27 10:46:11;;;;;;;17.77;11.65;;;21.00;99.90;;;;;;5052302;28;20036;-86
2022/08/27 10:48:51;;;;;;;23.73;12.05;;;21.00;99.90;;;;;;5046932;28;20240;-85
2022/08/27 10:51:30;;;;;;;17.27;11.65;;;21.10;99.90;;;;;;5071551;28;20081;-83
2022/08/27 10:54:06;;;;;;;19.23;12.35;;;21.20;99.90;;;;;;5049293;28;20035;-84
2022/08/27 10:56:42;;;;;;;23.13;13.73;;;21.20;99.90;;;;;;5052258;28;20029;-86
2022/08/27 10:59:39;;;;;;;19.58;13.32;;;21.20;99.90;;;;;;5051732;28;20047;-82
2022/08/27 11:02:22;;;;;;;23.25;14.75;;;21.20;99.90;;;;;;5059403;28;20518;-84
2022/08/27 11:05:31;;;;;;;25.92;14.27;;;21.20;99.90;;;;;;5053355;28;20063;-86
2022/08/27 11:08:32;;;;;;;23.83;14.02;;;21.30;99.90;;;;;;5056876;28;20551;-84
2022/08/27 11:11:09;;;;;;;21.48;14.65;;;21.40;99.90;;;;;;5060531;28;20119;-82
2022/08/27 11:13:38;;;;;;;22.98;15.00;;;21.50;99.90;;;;;;5073931;28;20033;-84
2022/08/27 11:16:14;;;;;;;23.02;15.05;;;21.60;99.90;;;;;;5041271;28;20076;-83
2022/08/27 11:19:02;;;;;;;22.90;15.00;;;21.80;99.90;;;;;;5073803;28;20362;-86
2022/08/27 11:22:02;;;;;;;25.77;16.85;;;22.00;99.90;;;;;;5057251;28;20031;-84
2022/08/27 11:25:00;;;;;;;20.45;14.68;;;22.00;99.90;;;;;;5064205;28;20043;-83
2022/08/27 11:27:29;;;;;;;24.73;15.88;;;22.10;99.90;;;;;;5064226;28;20040;-85
2022/08/27 11:30:36;;;;;;;21.67;14.05;;;22.20;99.90;;;;;;5060381;28;20017;-85
2022/08/27 11:33:39;;;;;;;21.75;14.95;;;22.20;99.90;;;;;;5047342;28;20113;-83
2022/08/27 11:36:32;;;;;;;22.63;15.38;;;22.30;99.90;;;;;;5071158;28;20025;-81
2022/08/27 11:39:39;;;;;;;19.90;14.63;;;22.40;99.90;;;;;;5071842;28;20033;-84
2022/08/27 11:42:13;;;;;;;17.80;12.93;;;22.40;99.90;;;;;;5024886;28;20033;-83
2022/08/27 11:44:49;;;;;;;18.35;13.35;;;22.50;99.90;;;;;;5045791;28;20108;-87
2022/08/27 11:47:27;;;;;;;18.38;13.13;;;22.50;99.90;;;;;;5081048;28;20070;-80
2022/08/27 11:50:04;;;;;;;13.63;9.73;;;22.50;99.90;;;;;;5051550;28;20495;-80
2022/08/27 11:52:37;;;;;;;14.18;10.30;;;22.60;99.90;;;;;;5069528;28;20058;-80
2022/08/27 11:55:21;;;;;;;15.70;11.27;;;22.70;99.90;;;;;;5070358;28;20044;-80
2022/08/27 11:58:18;;;;;;;17.08;10.93;;;22.80;99.90;;;;;;5065887;28;20017;-79
2022/08/27 12:00:45;;;;;;;14.80;11.68;;;22.90;99.90;;;;;;5062750;28;20021;-81
2022/08/27 12:03:20;;;;;;;14.88;11.73;;;22.90;99.90;;;;;;5072989;28;20032;-80
2022/08/27 12:05:53;;;;;;;19.85;11.77;;;23.00;99.90;;;;;;5046249;28;20025;-79
2022/08/27 12:08:25;;;;;;;13.23;10.65;;;23.10;99.90;;;;;;5068981;28;20402;-78
2022/08/27 12:11:05;;;;;;;15.70;10.02;;;23.10;99.90;;;;;;5057380;28;20095;-84
2022/08/27 12:14:11;;;;;;;16.00;11.32;;;23.30;99.90;;;;;;5083219;28;20032;-86
2022/08/27 12:17:04;;;;;;;15.63;10.93;;;23.50;99.90;;;;;;5064788;28;20048;-84
2022/08/27 12:19:57;;;;;;;15.15;11.50;;;23.60;99.90;;;;;;5079219;28;20073;-82
2022/08/27 12:25:31;;;;;;;15.00;11.48;;;23.50;99.90;;;;;;5079138;28;20035;-82
2022/08/27 12:28:03;;;;;;;13.77;10.80;;;23.60;99.90;;;;;;5056905;28;20024;-83
2022/08/27 12:30:33;;;;;;;18.65;12.50;;;23.60;99.90;;;;;;5078314;28;20027;-83
2022/08/27 12:33:31;;;;;;;16.63;11.80;;;23.70;99.90;;;;;;5075151;28;20031;-83
2022/08/27 12:36:18;;;;;;;16.63;11.23;;;23.80;99.90;;;;;;5076870;28;20020;-83
2022/08/27 12:39:21;;;;;;;17.42;10.48;;;23.80;99.90;;;;;;5057161;28;20036;-86
2022/08/27 12:42:13;;;;;;;13.68;9.88;;;23.60;99.90;;;;;;5051647;28;20058;-84
2022/08/27 12:44:39;;;;;;;12.67;10.20;;;23.60;99.90;;;;;;5062758;28;20347;-82
2022/08/27 12:47:15;;;;;;;15.40;10.13;;;23.50;99.90;;;;;;5061063;28;20386;-83
2022/08/27 12:49:46;;;;;;;11.35;8.65;;;23.40;99.90;;;;;;5045875;28;20353;-82
2022/08/27 12:52:47;;;;;;;16.23;9.02;;;23.30;99.90;;;;;;5060977;28;20016;-83
2022/08/27 12:55:29;;;;;;;12.38;9.20;;;23.20;99.90;;;;;;5045742;28;20032;-83
2022/08/27 12:58:30;;;;;;;11.95;9.27;;;23.20;99.90;;;;;;5066939;28;20056;-84
2022/08/27 13:01:28;;;;;;;14.68;10.80;;;23.20;99.90;;;;;;5048723;28;20036;-83
2022/08/27 13:04:05;;;;;;;14.95;10.65;;;23.10;99.90;;;;;;5049629;28;20024;-84
2022/08/27 13:06:35;;;;;;;13.30;9.75;;;23.00;99.90;;;;;;5063325;28;20085;-83
2022/08/27 13:09:09;;;;;;;29.48;12.68;;;22.90;99.90;;;;;;5070122;28;20027;-81
2022/08/27 13:11:54;;;;;;;16.55;11.18;;;23.10;99.90;;;;;;5067400;28;20009;-83
2022/08/27 13:14:20;;;;;;;13.48;9.95;;;23.20;99.90;;;;;;5074814;28;20020;-82
2022/08/27 13:16:52;;;;;;;16.80;9.85;;;23.30;99.90;;;;;;5050340;28;20057;-84